Time;durP1;ratioP1;P1;durP2;ratioP2;P2;SDS_P1;SDS_P2;PMS_P1;PMS_P2;Temp;Humidity;BMP_temperature;BMP_pressure;BME280_temperature;BME280_humidity;BME280_pressure;Samples;Min_cycle;Max_cycle;Signal;HPM_P1;HPM_P2
2021/06/19 00:00:47;;;;;;;9.73;3.45;;;16.40;99.90;;;;;;5031893;28;20458;-66
2021/06/19 00:03:13;;;;;;;9.68;3.55;;;16.50;99.90;;;;;;5032307;28;20025;-66
2021/06/19 00:05:39;;;;;;;10.45;3.60;;;16.40;99.90;;;;;;5034928;28;20481;-67
2021/06/19 00:08:09;;;;;;;;;;;16.50;99.90;;;;;;5032524;28;20029;-67
2021/06/19 00:10:35;;;;;;;11.18;3.88;;;16.40;99.90;;;;;;5031552;28;19913;-67
2021/06/19 00:13:01;;;;;;;12.73;4.13;;;16.40;99.90;;;;;;5031501;28;20371;-66
2021/06/19 00:15:27;;;;;;;12.82;3.65;;;16.40;99.90;;;;;;5034048;28;20021;-67
2021/06/19 00:17:54;;;;;;;10.40;3.30;;;16.30;99.90;;;;;;5031904;28;20090;-67
2021/06/19 00:20:25;;;;;;;14.88;4.43;;;16.20;99.90;;;;;;5033958;28;20071;-66
2021/06/19 00:22:51;;;;;;;14.38;3.92;;;16.20;99.90;;;;;;5030962;28;20115;-66
2021/06/19 00:25:19;;;;;;;11.60;3.60;;;16.30;99.90;;;;;;5034722;28;20056;-67
2021/06/19 00:27:46;;;;;;;11.95;4.07;;;16.30;99.90;;;;;;5029134;28;20079;-67
2021/06/19 00:30:13;;;;;;;10.38;3.95;;;16.30;99.90;;;;;;5013366;28;20531;-66
2021/06/19 00:32:39;;;;;;;11.52;4.05;;;16.40;99.90;;;;;;5031744;28;20755;-66
2021/06/19 00:35:07;;;;;;;13.05;4.00;;;16.50;99.90;;;;;;5029096;28;20222;-67
2021/06/19 00:37:34;;;;;;;9.52;3.53;;;16.60;99.90;;;;;;5032427;28;20029;-67
2021/06/19 00:40:02;;;;;;;8.05;4.03;;;16.70;99.90;;;;;;5033368;28;20032;-67
2021/06/19 00:42:28;;;;;;;9.55;3.33;;;16.60;99.90;;;;;;5032563;28;20024;-67
2021/06/19 00:44:57;;;;;;;10.05;3.80;;;16.60;99.90;;;;;;5032919;28;20029;-67
2021/06/19 00:47:24;;;;;;;7.50;3.83;;;16.70;99.90;;;;;;5032095;28;20581;-66
2021/06/19 00:49:50;;;;;;;8.50;4.63;;;16.80;99.90;;;;;;5031005;28;20064;-66
2021/06/19 00:52:16;;;;;;;8.30;3.83;;;16.70;99.90;;;;;;5030009;28;20928;-66
2021/06/19 00:54:42;;;;;;;11.63;4.53;;;16.70;99.90;;;;;;5033219;28;20107;-66
2021/06/19 00:57:09;;;;;;;11.27;4.47;;;16.80;99.90;;;;;;5026769;28;20028;-65
2021/06/19 00:59:38;;;;;;;8.80;4.40;;;16.70;99.90;;;;;;5033874;28;20083;-65
2021/06/19 01:02:04;;;;;;;10.02;4.20;;;16.70;99.90;;;;;;5031656;28;20559;-65
2021/06/19 01:04:31;;;;;;;7.88;4.25;;;16.60;99.90;;;;;;5029112;28;20120;-65
2021/06/19 01:06:59;;;;;;;11.00;4.47;;;16.50;99.90;;;;;;5036151;28;20040;-65
2021/06/19 01:09:25;;;;;;;8.38;4.53;;;16.50;99.90;;;;;;5035344;28;20210;-65
2021/06/19 01:11:54;;;;;;;7.93;4.65;;;16.40;99.90;;;;;;5034820;28;20041;-65
2021/06/19 01:14:19;;;;;;;11.13;4.57;;;16.40;99.90;;;;;;5035120;28;20048;-65
2021/06/19 01:16:48;;;;;;;12.85;4.90;;;16.50;99.90;;;;;;5035074;28;20143;-64
2021/06/19 01:19:14;;;;;;;11.18;5.18;;;16.50;99.90;;;;;;5035385;28;20029;-65
2021/06/19 01:21:42;;;;;;;12.20;4.80;;;16.50;99.90;;;;;;5012317;28;20143;-65
2021/06/19 01:24:15;;;;;;;7.72;4.78;;;16.50;99.90;;;;;;5033656;28;20070;-65
2021/06/19 01:26:43;;;;;;;9.23;4.60;;;16.50;99.90;;;;;;5034731;28;20661;-65
2021/06/19 01:29:09;;;;;;;8.05;4.82;;;16.50;99.90;;;;;;5033688;28;20358;-65
2021/06/19 01:31:38;;;;;;;10.23;5.43;;;16.40;99.90;;;;;;5034216;28;20090;-65
2021/06/19 01:34:03;;;;;;;13.15;5.25;;;16.50;99.90;;;;;;5035536;28;20059;-64
2021/06/19 01:36:29;;;;;;;9.60;5.35;;;16.50;99.90;;;;;;5033193;28;20134;-65
2021/06/19 01:38:56;;;;;;;10.65;5.00;;;16.50;99.90;;;;;;5037722;28;20037;-65
2021/06/19 01:41:25;;;;;;;13.07;4.90;;;16.50;99.90;;;;;;5034045;28;20071;-65
2021/06/19 01:43:58;;;;;;;12.23;5.35;;;16.50;99.90;;;;;;5035590;28;20029;-65
2021/06/19 01:46:24;;;;;;;9.18;5.30;;;16.40;99.90;;;;;;5031602;28;20075;-65
2021/06/19 01:48:50;;;;;;;14.88;5.75;;;16.40;99.90;;;;;;5035851;28;20040;-65
2021/06/19 01:51:16;;;;;;;9.82;4.80;;;16.40;99.90;;;;;;5037580;28;20379;-65
2021/06/19 01:53:43;;;;;;;8.82;4.25;;;16.50;99.90;;;;;;5035365;28;20041;-65
2021/06/19 01:56:10;;;;;;;9.32;5.15;;;16.50;99.90;;;;;;5035888;28;20484;-65
2021/06/19 01:58:36;;;;;;;11.00;4.68;;;16.60;99.90;;;;;;5036009;28;20318;-65
2021/06/19 02:01:07;;;;;;;12.60;5.50;;;16.50;99.90;;;;;;5032706;28;20128;-65
2021/06/19 02:03:33;;;;;;;8.27;4.57;;;16.50;99.90;;;;;;5035285;28;20152;-65
2021/06/19 02:05:58;;;;;;;11.10;4.32;;;16.50;99.90;;;;;;5036037;28;20044;-65
2021/06/19 02:08:24;;;;;;;6.95;4.30;;;16.50;99.90;;;;;;5019400;28;20063;-65
2021/06/19 02:10:50;;;;;;;8.50;4.32;;;16.50;99.90;;;;;;5034897;28;20488;-65
2021/06/19 02:13:16;;;;;;;8.32;4.53;;;16.50;99.90;;;;;;5035536;28;20029;-65
2021/06/19 02:15:45;;;;;;;8.27;4.75;;;16.60;99.90;;;;;;5035648;28;20029;-65
2021/06/19 02:18:11;;;;;;;10.45;5.07;;;16.60;99.90;;;;;;5033844;28;20032;-65
2021/06/19 02:20:37;;;;;;;8.05;5.10;;;16.60;99.90;;;;;;5035919;28;20028;-65
2021/06/19 02:23:04;;;;;;;8.73;5.20;;;16.50;99.90;;;;;;5034065;28;20765;-66
2021/06/19 02:25:31;;;;;;;11.93;5.72;;;16.60;99.90;;;;;;5035271;28;20056;-65
2021/06/19 02:28:04;;;;;;;9.55;5.28;;;16.50;99.90;;;;;;5035743;28;20083;-65
2021/06/19 02:30:42;;;;;;;10.40;4.68;;;16.50;99.90;;;;;;5034233;28;20537;-65
2021/06/19 02:33:08;;;;;;;8.10;4.88;;;16.50;99.90;;;;;;5034128;28;20233;-65
2021/06/19 02:35:36;;;;;;;9.23;5.63;;;16.50;99.90;;;;;;5034804;28;20021;-64
2021/06/19 02:38:03;;;;;;;13.63;5.50;;;16.50;99.90;;;;;;5035951;28;20028;-65
2021/06/19 02:40:29;;;;;;;12.13;5.68;;;16.40;99.90;;;;;;5019030;28;20032;-65
2021/06/19 02:42:55;;;;;;;11.50;5.65;;;16.40;99.90;;;;;;5033380;28;20024;-65
2021/06/19 02:45:22;;;;;;;7.97;5.35;;;16.40;99.90;;;;;;5036230;28;20041;-65
2021/06/19 02:47:50;;;;;;;11.25;5.68;;;16.40;99.90;;;;;;5034598;28;20021;-65
2021/06/19 02:50:19;;;;;;;8.80;5.38;;;16.50;99.90;;;;;;5037172;28;20029;-65
2021/06/19 02:52:45;;;;;;;8.55;5.63;;;16.50;99.90;;;;;;5031362;28;20037;-65
2021/06/19 02:55:14;;;;;;;7.97;4.63;;;16.50;99.90;;;;;;5034721;28;20051;-65
2021/06/19 02:57:40;;;;;;;7.40;4.73;;;16.50;99.90;;;;;;5031711;28;20551;-65
2021/06/19 03:00:09;;;;;;;10.98;5.90;;;16.50;99.90;;;;;;5035660;28;20603;-65
2021/06/19 03:02:35;;;;;;;;;;;16.40;99.90;;;;;;5034458;28;20041;-64
2021/06/19 03:05:01;;;;;;;9.90;4.57;;;16.50;99.90;;;;;;5034309;28;20287;-65
2021/06/19 03:07:27;;;;;;;6.22;4.90;;;16.50;99.90;;;;;;5033427;28;20528;-65
2021/06/19 03:09:54;;;;;;;10.30;5.95;;;16.50;99.90;;;;;;5033623;28;20033;-64
2021/06/19 03:12:19;;;;;;;11.60;6.00;;;16.50;99.90;;;;;;5031616;28;20033;-65
2021/06/19 03:14:45;;;;;;;8.02;5.00;;;16.50;99.90;;;;;;5029461;28;20331;-65
2021/06/19 03:17:12;;;;;;;7.00;4.82;;;16.40;99.90;;;;;;5035889;28;20510;-65
2021/06/19 03:19:39;;;;;;;11.02;5.80;;;16.40;99.90;;;;;;5033825;28;20541;-65
2021/06/19 03:22:05;;;;;;;8.68;5.47;;;16.40;99.90;;;;;;5035307;28;20033;-65
2021/06/19 03:24:40;;;;;;;6.55;4.20;;;16.50;99.90;;;;;;5035418;28;20029;-65
2021/06/19 03:27:11;;;;;;;8.70;5.07;;;16.50;99.90;;;;;;5033016;28;20057;-65
2021/06/19 03:29:37;;;;;;;7.72;5.10;;;16.50;99.90;;;;;;5032684;28;20040;-65
2021/06/19 03:32:03;;;;;;;8.02;4.75;;;16.50;99.90;;;;;;5035894;28;20090;-65
2021/06/19 03:34:30;;;;;;;7.40;4.63;;;16.50;99.90;;;;;;5007752;28;20025;-65
2021/06/19 03:37:00;;;;;;;8.75;4.53;;;16.60;99.90;;;;;;5022091;28;20029;-65
2021/06/19 03:39:29;;;;;;;;;;;16.60;99.90;;;;;;5035321;28;20511;-65
2021/06/19 03:41:55;;;;;;;6.15;4.78;;;16.60;99.90;;;;;;5034083;28;19920;-65
2021/06/19 03:44:22;;;;;;;8.68;5.93;;;16.70;99.90;;;;;;5031377;28;20099;-64
2021/06/19 03:46:48;;;;;;;10.70;6.68;;;16.80;99.90;;;;;;5033372;28;20140;-65
2021/06/19 03:49:14;;;;;;;9.15;5.78;;;16.80;99.90;;;;;;5035617;28;20342;-64
2021/06/19 03:51:40;;;;;;;7.50;5.38;;;16.90;99.90;;;;;;5032156;28;20028;-65
2021/06/19 03:54:06;;;;;;;11.75;5.55;;;16.90;99.90;;;;;;5033563;28;20025;-64
2021/06/19 03:56:32;;;;;;;10.95;6.95;;;16.90;99.90;;;;;;5035528;28;20827;-64
2021/06/19 03:58:58;;;;;;;8.35;4.85;;;17.00;99.90;;;;;;5031559;28;20060;-65
2021/06/19 04:01:24;;;;;;;7.43;5.15;;;17.20;99.90;;;;;;5035105;28;20512;-65
2021/06/19 04:03:50;;;;;;;9.30;5.78;;;17.30;99.90;;;;;;5031423;28;20029;-64
2021/06/19 04:06:16;;;;;;;6.18;5.00;;;17.30;99.90;;;;;;5033106;28;20037;-65
2021/06/19 04:08:42;;;;;;;10.35;6.65;;;17.50;99.90;;;;;;5035087;28;20033;-65
2021/06/19 04:11:08;;;;;;;9.05;6.20;;;17.60;99.90;;;;;;5032654;28;20500;-65
2021/06/19 04:13:34;;;;;;;11.45;6.97;;;17.80;99.90;;;;;;5034251;28;20017;-64
2021/06/19 04:16:00;;;;;;;10.05;6.85;;;18.00;99.90;;;;;;5033172;28;20452;-64
2021/06/19 04:18:25;;;;;;;9.98;6.97;;;18.10;99.90;;;;;;5033924;28;20820;-64
2021/06/19 04:20:51;;;;;;;11.18;7.20;;;18.20;99.90;;;;;;5033431;28;20037;-64
2021/06/19 04:23:17;;;;;;;12.15;7.43;;;18.30;99.90;;;;;;5032662;28;20456;-64
2021/06/19 04:25:43;;;;;;;16.08;7.13;;;18.40;99.90;;;;;;5032469;28;20425;-64
2021/06/19 04:28:09;;;;;;;11.60;6.70;;;18.50;99.90;;;;;;5033160;28;20029;-64
2021/06/19 04:30:35;;;;;;;11.88;6.97;;;18.60;99.90;;;;;;5027841;28;20477;-64
2021/06/19 04:33:01;;;;;;;12.73;7.25;;;18.60;99.90;;;;;;5033454;28;20079;-64
2021/06/19 04:35:28;;;;;;;9.25;6.43;;;18.60;99.90;;;;;;5027365;28;20029;-64
2021/06/19 04:37:54;;;;;;;7.60;6.05;;;18.70;99.90;;;;;;5030767;28;20279;-64
2021/06/19 04:43:01;;;;;;;11.73;6.30;;;18.90;99.90;;;;;;5034412;28;20048;-64
2021/06/19 04:45:27;;;;;;;17.83;7.38;;;19.00;99.90;;;;;;5028351;28;20033;-65
2021/06/19 04:47:53;;;;;;;10.88;5.97;;;19.20;99.90;;;;;;5037632;28;20067;-64
2021/06/19 04:50:19;;;;;;;8.65;6.25;;;19.30;99.90;;;;;;5033752;28;20108;-64
2021/06/19 04:52:45;;;;;;;9.23;6.40;;;19.40;99.90;;;;;;5032165;28;20381;-64
2021/06/19 04:55:17;;;;;;;7.72;6.20;;;19.40;99.90;;;;;;5031910;28;20503;-64
2021/06/19 04:57:47;;;;;;;9.10;6.95;;;19.50;99.90;;;;;;5025530;28;20033;-65
2021/06/19 05:00:14;;;;;;;7.18;5.05;;;19.70;99.90;;;;;;5029394;28;20435;-64
2021/06/19 05:02:40;;;;;;;7.57;5.78;;;19.80;99.90;;;;;;5036138;28;20143;-64
2021/06/19 05:05:06;;;;;;;8.20;6.00;;;19.80;99.90;;;;;;5036647;28;20024;-64
2021/06/19 05:07:35;;;;;;;8.57;6.03;;;19.80;99.90;;;;;;5011113;28;20086;-64
2021/06/19 05:10:05;;;;;;;11.13;6.35;;;19.80;99.90;;;;;;5034776;28;20087;-64
2021/06/19 05:12:33;;;;;;;13.65;5.65;;;19.80;99.90;;;;;;5011587;28;22478;-64
2021/06/19 05:15:00;;;;;;;9.27;6.40;;;19.80;99.90;;;;;;5036527;28;20481;-64
2021/06/19 05:17:29;;;;;;;9.15;6.25;;;19.80;99.90;;;;;;5030926;28;20033;-64
2021/06/19 05:19:56;;;;;;;9.27;6.45;;;19.80;99.90;;;;;;5032663;28;20025;-64
2021/06/19 05:22:22;;;;;;;11.02;6.68;;;19.90;99.90;;;;;;5033750;28;20071;-64
2021/06/19 05:24:48;;;;;;;14.65;6.57;;;20.00;99.90;;;;;;5028844;28;20617;-65
2021/06/19 05:27:14;;;;;;;9.00;6.28;;;20.10;99.90;;;;;;5031453;28;20063;-64
2021/06/19 05:29:40;;;;;;;9.35;5.72;;;20.20;99.90;;;;;;5031210;28;20036;-64
2021/06/19 05:32:06;;;;;;;11.13;5.30;;;20.40;99.90;;;;;;5038909;28;20028;-64
2021/06/19 05:34:33;;;;;;;10.10;5.88;;;20.50;99.90;;;;;;5036566;28;20110;-63
2021/06/19 05:36:59;;;;;;;10.15;5.95;;;20.60;99.90;;;;;;5037115;28;20033;-64
2021/06/19 05:39:25;;;;;;;8.63;5.32;;;20.60;99.90;;;;;;5036689;28;20032;-64
2021/06/19 05:41:51;;;;;;;8.45;5.63;;;20.60;99.90;;;;;;5036747;28;20355;-64
2021/06/19 05:44:17;;;;;;;9.93;5.93;;;20.60;99.90;;;;;;5031192;28;20089;-67
2021/06/19 05:46:42;;;;;;;8.57;5.72;;;20.70;99.90;;;;;;5032291;28;20503;-64
2021/06/19 05:49:08;;;;;;;12.35;5.72;;;20.60;99.90;;;;;;5036611;28;20067;-64
2021/06/19 05:51:35;;;;;;;8.55;5.25;;;20.60;99.90;;;;;;5032363;28;20034;-64
2021/06/19 05:54:02;;;;;;;9.13;5.70;;;20.80;99.90;;;;;;5035457;28;20032;-64
2021/06/19 05:56:29;;;;;;;9.82;6.05;;;20.90;99.90;;;;;;5038237;28;20316;-64
2021/06/19 05:58:55;;;;;;;11.40;5.82;;;21.00;99.90;;;;;;5031088;28;20029;-64
2021/06/19 06:01:21;;;;;;;9.32;5.95;;;21.10;99.90;;;;;;5035443;28;20104;-64
2021/06/19 06:03:48;;;;;;;7.65;5.90;;;21.40;99.90;;;;;;5037753;28;20040;-64
2021/06/19 06:06:16;;;;;;;9.02;6.05;;;21.60;99.90;;;;;;5035851;28;20044;-64
2021/06/19 06:08:42;;;;;;;9.27;5.43;;;21.70;99.90;;;;;;5034860;28;20037;-64
2021/06/19 06:11:08;;;;;;;12.00;6.65;;;21.90;99.90;;;;;;5034819;28;20536;-64
2021/06/19 06:13:34;;;;;;;9.60;5.95;;;21.90;99.90;;;;;;5032411;28;20075;-64
2021/06/19 06:16:00;;;;;;;8.93;6.45;;;22.00;99.90;;;;;;5031843;28;20028;-64
2021/06/19 06:18:26;;;;;;;9.88;6.22;;;22.10;99.90;;;;;;5017982;28;20083;-64
2021/06/19 06:20:52;;;;;;;9.70;6.38;;;22.20;99.90;;;;;;5031343;28;20067;-65
2021/06/19 06:23:18;;;;;;;9.18;5.57;;;22.20;99.90;;;;;;5036482;28;20033;-64
2021/06/19 06:25:44;;;;;;;11.57;6.05;;;22.30;99.90;;;;;;5031259;28;20094;-65
2021/06/19 06:28:10;;;;;;;12.75;6.93;;;22.60;99.90;;;;;;5032230;28;20045;-65
2021/06/19 06:30:36;;;;;;;13.93;5.95;;;22.80;99.90;;;;;;5036822;28;20087;-64
2021/06/19 06:33:01;;;;;;;14.18;5.90;;;22.80;99.90;;;;;;5035423;28;20033;-64
2021/06/19 06:35:27;;;;;;;8.75;6.55;;;22.90;99.90;;;;;;5033929;28;20104;-64
2021/06/19 06:37:53;;;;;;;8.15;5.43;;;22.90;99.90;;;;;;5033886;28;20033;-64
2021/06/19 06:40:19;;;;;;;14.75;6.43;;;23.00;99.90;;;;;;5034689;28;20028;-64
2021/06/19 06:42:44;;;;;;;10.02;5.35;;;23.20;99.90;;;;;;5029669;28;20022;-64
2021/06/19 06:45:13;;;;;;;11.68;5.63;;;23.20;99.90;;;;;;5006215;28;20024;-64
2021/06/19 06:47:39;;;;;;;8.57;5.87;;;23.20;99.90;;;;;;5035137;28;20070;-64
2021/06/19 06:50:07;;;;;;;13.10;5.90;;;23.20;99.90;;;;;;5031428;28;20090;-64
2021/06/19 06:52:34;;;;;;;19.38;5.47;;;23.30;99.90;;;;;;5034514;28;20033;-64
2021/06/19 06:55:00;;;;;;;12.93;5.45;;;23.40;99.90;;;;;;5034185;28;20511;-65
2021/06/19 06:57:26;;;;;;;14.30;5.90;;;23.50;99.90;;;;;;5028862;28;20040;-64
2021/06/19 06:59:52;;;;;;;11.98;5.32;;;23.70;99.90;;;;;;5026876;28;20475;-65
2021/06/19 07:02:18;;;;;;;10.32;5.18;;;23.80;99.90;;;;;;5031638;28;20576;-65
2021/06/19 07:04:44;;;;;;;11.38;6.20;;;24.10;99.90;;;;;;5032922;28;20039;-65
2021/06/19 07:07:10;;;;;;;11.85;6.03;;;24.50;99.90;;;;;;5030430;28;20041;-65
2021/06/19 07:09:36;;;;;;;11.55;6.10;;;24.60;99.90;;;;;;5033928;28;20029;-64
2021/06/19 07:12:03;;;;;;;11.57;5.72;;;24.60;99.90;;;;;;5029599;28;20033;-64
2021/06/19 07:14:29;;;;;;;13.52;5.95;;;24.30;99.90;;;;;;5015212;28;20021;-65
2021/06/19 07:16:55;;;;;;;11.98;5.75;;;24.20;99.90;;;;;;5034547;28;20385;-64
2021/06/19 07:19:20;;;;;;;11.63;6.28;;;24.10;99.90;;;;;;5037392;28;20053;-65
2021/06/19 07:21:46;;;;;;;12.20;6.35;;;24.00;99.90;;;;;;5036018;28;20082;-65
2021/06/19 07:24:12;;;;;;;13.27;6.38;;;24.10;99.90;;;;;;5035656;28;20115;-64
2021/06/19 07:26:38;;;;;;;19.52;6.07;;;24.30;99.90;;;;;;5035582;28;20399;-64
2021/06/19 07:29:04;;;;;;;11.70;5.47;;;24.10;99.90;;;;;;5037043;28;20348;-64
2021/06/19 07:31:29;;;;;;;8.70;5.28;;;24.10;99.90;;;;;;5018199;28;20430;-64
2021/06/19 07:33:55;;;;;;;10.80;6.40;;;24.50;99.90;;;;;;5035436;28;20029;-64
2021/06/19 07:36:21;;;;;;;12.02;6.03;;;24.50;99.90;;;;;;5036716;28;20052;-64
2021/06/19 07:38:47;;;;;;;8.40;5.15;;;24.50;99.90;;;;;;5035179;28;20425;-64
2021/06/19 07:41:13;;;;;;;12.27;5.40;;;24.50;99.90;;;;;;5032716;28;20179;-64
2021/06/19 07:43:40;;;;;;;10.65;5.32;;;24.70;99.90;;;;;;5036343;28;20489;-64
2021/06/19 07:46:07;;;;;;;11.23;6.53;;;24.80;99.90;;;;;;5034722;28;20547;-65
2021/06/19 07:48:33;;;;;;;9.70;5.45;;;24.70;99.90;;;;;;5036342;28;20028;-65
2021/06/19 07:50:59;;;;;;;11.43;5.32;;;24.70;99.90;;;;;;5036061;28;20036;-64
2021/06/19 07:53:25;;;;;;;12.13;5.40;;;24.70;99.90;;;;;;5033747;28;20028;-65
2021/06/19 07:55:50;;;;;;;14.25;6.35;;;24.90;99.90;;;;;;5036340;28;20064;-64
2021/06/19 07:58:16;;;;;;;11.95;5.53;;;25.00;99.90;;;;;;5034456;28;20059;-65
2021/06/19 08:00:43;;;;;;;12.85;6.35;;;25.00;99.90;;;;;;5035625;28;20071;-65
2021/06/19 08:03:09;;;;;;;13.65;5.70;;;25.00;99.90;;;;;;5036117;28;20177;-65
2021/06/19 08:05:35;;;;;;;12.82;5.30;;;25.30;99.90;;;;;;5034142;28;20162;-65
2021/06/19 08:08:00;;;;;;;12.23;5.10;;;25.70;99.90;;;;;;5034863;28;20706;-65
2021/06/19 08:10:26;;;;;;;10.27;4.78;;;26.10;99.90;;;;;;5035927;28;20477;-65
2021/06/19 08:12:53;;;;;;;11.15;5.40;;;26.00;99.90;;;;;;5034752;28;20036;-64
2021/06/19 08:15:20;;;;;;;13.52;5.88;;;25.60;99.90;;;;;;5034877;28;20128;-65
2021/06/19 08:17:46;;;;;;;11.27;5.18;;;25.10;99.90;;;;;;5034851;28;20192;-65
2021/06/19 08:20:13;;;;;;;12.35;6.13;;;24.60;99.90;;;;;;5039019;28;20566;-65
2021/06/19 08:22:39;;;;;;;15.48;5.85;;;24.50;99.90;;;;;;5039013;28;20120;-65
2021/06/19 08:25:06;;;;;;;13.13;5.65;;;24.50;99.90;;;;;;5038543;28;20045;-65
2021/06/19 08:27:32;;;;;;;13.73;5.68;;;24.80;99.90;;;;;;5022235;28;20471;-66
2021/06/19 08:29:58;;;;;;;12.88;5.70;;;24.90;99.90;;;;;;5039240;28;20023;-65
2021/06/19 08:32:24;;;;;;;14.85;6.13;;;25.00;99.90;;;;;;5039824;28;20562;-65
2021/06/19 08:34:50;;;;;;;13.38;5.25;;;25.10;99.90;;;;;;5038512;28;20052;-65
2021/06/19 08:37:16;;;;;;;13.65;5.57;;;25.00;99.90;;;;;;5037755;28;20033;-65
2021/06/19 08:39:42;;;;;;;10.45;5.28;;;24.80;99.90;;;;;;5037397;28;20449;-65
2021/06/19 08:42:08;;;;;;;10.45;5.82;;;24.60;99.90;;;;;;5038429;28;20032;-65
2021/06/19 08:44:34;;;;;;;15.35;5.88;;;24.30;99.90;;;;;;5039736;28;20465;-65
2021/06/19 08:47:00;;;;;;;13.13;6.40;;;24.20;99.90;;;;;;5021900;28;20049;-66
2021/06/19 08:49:27;;;;;;;10.70;5.80;;;24.60;99.90;;;;;;5037232;28;20705;-65
2021/06/19 08:51:54;;;;;;;12.93;6.15;;;25.10;99.90;;;;;;5038433;28;20033;-65
2021/06/19 08:54:21;;;;;;;12.90;6.05;;;25.00;99.90;;;;;;5014275;28;20122;-66
2021/06/19 08:56:48;;;;;;;10.07;5.55;;;25.10;99.90;;;;;;5036681;28;20114;-65
2021/06/19 08:59:14;;;;;;;13.30;5.38;;;25.10;99.90;;;;;;5039084;28;20426;-66
2021/06/19 09:01:41;;;;;;;8.18;5.03;;;25.50;99.90;;;;;;5037664;28;20029;-66
2021/06/19 09:04:09;;;;;;;14.70;4.75;;;25.80;99.90;;;;;;5020210;28;20048;-66
2021/06/19 09:06:40;;;;;;;8.20;4.75;;;26.40;99.90;;;;;;5034936;28;20040;-66
2021/06/19 09:09:17;;;;;;;10.30;4.13;;;26.30;99.90;;;;;;5038882;28;20025;-66
2021/06/19 09:11:44;;;;;;;9.68;4.57;;;26.00;99.90;;;;;;5038786;28;20037;-65
2021/06/19 09:14:19;;;;;;;10.45;4.13;;;25.60;99.90;;;;;;5039344;28;20350;-65
2021/06/19 09:16:59;;;;;;;8.63;4.38;;;25.30;99.90;;;;;;5039397;28;20040;-65
2021/06/19 09:19:29;;;;;;;10.00;4.05;;;25.60;99.90;;;;;;5039500;28;20557;-65
2021/06/19 09:22:13;;;;;;;8.60;3.78;;;25.50;99.90;;;;;;5038245;28;20032;-65
2021/06/19 09:24:52;;;;;;;8.43;3.95;;;25.30;99.90;;;;;;5037631;28;20029;-65
2021/06/19 09:27:36;;;;;;;7.82;3.80;;;25.30;99.90;;;;;;5036615;28;20452;-65
2021/06/19 09:30:18;;;;;;;7.53;3.50;;;25.50;99.90;;;;;;5037786;28;20033;-65
2021/06/19 09:32:50;;;;;;;7.93;3.72;;;25.60;99.90;;;;;;5039210;28;20078;-66
2021/06/19 09:35:17;;;;;;;7.93;3.90;;;25.40;99.90;;;;;;5038097;28;20029;-65
2021/06/19 09:37:49;;;;;;;6.25;3.95;;;25.30;99.90;;;;;;5038028;28;20039;-65
2021/06/19 09:40:42;;;;;;;9.82;3.70;;;25.40;99.90;;;;;;5037522;28;20086;-65
2021/06/19 09:43:08;;;;;;;5.63;3.58;;;25.20;99.90;;;;;;5037627;28;20084;-65
2021/06/19 09:45:35;;;;;;;5.93;3.47;;;25.30;99.90;;;;;;5038534;28;20139;-65
2021/06/19 09:48:01;;;;;;;9.80;4.45;;;25.30;99.90;;;;;;5036603;28;20132;-65
2021/06/19 09:50:28;;;;;;;4.20;2.70;;;25.60;99.90;;;;;;5038594;28;20499;-65
2021/06/19 09:52:54;;;;;;;4.85;2.60;;;26.10;99.90;;;;;;5038000;28;20401;-65
2021/06/19 09:55:21;;;;;;;5.63;2.47;;;26.30;99.90;;;;;;5038118;28;20048;-65
2021/06/19 09:57:50;;;;;;;9.05;2.88;;;26.30;99.90;;;;;;5037670;28;20041;-65
2021/06/19 10:00:20;;;;;;;4.45;2.85;;;25.70;99.90;;;;;;5037683;28;20366;-66
2021/06/19 10:02:48;;;;;;;8.38;3.90;;;25.30;99.90;;;;;;5035598;28;20060;-65
2021/06/19 10:05:14;;;;;;;8.45;3.80;;;25.20;99.90;;;;;;5038447;28;20577;-65
2021/06/19 10:07:40;;;;;;;9.43;4.35;;;25.10;99.90;;;;;;5032815;28;20547;-65
2021/06/19 10:10:11;;;;;;;12.43;4.28;;;24.80;99.90;;;;;;5035939;28;20025;-65
2021/06/19 10:12:38;;;;;;;11.20;4.45;;;24.80;99.90;;;;;;5037794;28;20035;-66
2021/06/19 10:15:10;;;;;;;8.52;4.50;;;25.00;99.90;;;;;;5037686;28;20502;-65
2021/06/19 10:17:38;;;;;;;7.45;4.32;;;25.10;99.90;;;;;;5037072;28;20033;-65
2021/06/19 10:20:09;;;;;;;7.68;4.45;;;24.90;99.90;;;;;;5034661;28;20108;-65
2021/06/19 10:22:37;;;;;;;10.02;4.85;;;24.70;99.90;;;;;;5036462;28;20044;-65
2021/06/19 10:25:09;;;;;;;10.50;4.93;;;24.30;99.90;;;;;;5036082;28;20037;-65
2021/06/19 10:27:42;;;;;;;11.68;3.97;;;23.80;99.90;;;;;;5038176;28;20040;-65
2021/06/19 10:30:10;;;;;;;5.57;3.60;;;23.40;99.90;;;;;;5036641;28;20536;-65
2021/06/19 10:32:46;;;;;;;6.00;4.00;;;23.10;99.90;;;;;;5038077;28;20051;-65
2021/06/19 10:35:15;;;;;;;7.70;5.43;;;22.80;99.90;;;;;;5037216;28;20029;-64
2021/06/19 10:37:42;;;;;;;8.52;4.78;;;22.60;99.90;;;;;;5037951;28;20040;-65
2021/06/19 10:40:28;;;;;;;10.02;4.85;;;22.60;99.90;;;;;;5035080;28;20033;-65
2021/06/19 10:43:12;;;;;;;10.65;5.70;;;22.90;99.90;;;;;;5037067;28;20033;-65
2021/06/19 10:45:41;;;;;;;12.75;4.97;;;23.00;99.90;;;;;;5037245;28;20462;-65
2021/06/19 10:48:12;;;;;;;8.93;4.85;;;23.20;99.90;;;;;;5033782;28;20029;-65
2021/06/19 10:50:43;;;;;;;8.93;6.00;;;23.00;99.90;;;;;;5036694;28;20048;-65
2021/06/19 10:53:18;;;;;;;13.15;7.03;;;22.80;99.90;;;;;;5033993;28;20595;-65
2021/06/19 10:55:44;;;;;;;10.50;6.50;;;22.70;99.90;;;;;;5037032;28;20040;-65
2021/06/19 10:58:23;;;;;;;13.43;8.57;;;22.60;99.90;;;;;;5035408;28;20373;-65
2021/06/19 11:00:51;;;;;;;8.32;6.80;;;22.70;99.90;;;;;;5037470;28;20323;-65
2021/06/19 11:03:38;;;;;;;13.70;9.13;;;22.90;99.90;;;;;;5036847;28;20036;-65
2021/06/19 11:06:27;;;;;;;19.10;9.27;;;23.20;99.90;;;;;;5035398;28;20083;-64
2021/06/19 11:09:00;;;;;;;;;;;23.80;99.90;;;;;;5037242;28;20427;-65
2021/06/19 11:11:48;;;;;;;14.52;9.70;;;24.20;99.90;;;;;;5035687;28;19920;-65
2021/06/19 11:14:44;;;;;;;18.38;10.63;;;23.80;99.90;;;;;;5036845;28;20094;-65
2021/06/19 11:17:22;;;;;;;14.55;10.18;;;23.50;99.90;;;;;;5037627;28;20072;-64
2021/06/19 11:20:02;;;;;;;18.38;11.55;;;23.20;99.90;;;;;;5036257;28;20153;-64
2021/06/19 11:22:40;;;;;;;14.90;10.98;;;22.80;99.90;;;;;;5036231;28;20021;-65
2021/06/19 11:25:15;;;;;;;24.88;15.32;;;22.50;99.90;;;;;;5034473;28;20056;-64
2021/06/19 11:27:47;;;;;;;22.55;12.48;;;22.20;99.90;;;;;;5033854;28;20560;-65
2021/06/19 11:30:35;;;;;;;23.38;14.30;;;22.50;99.90;;;;;;5034422;28;20091;-64
2021/06/19 11:33:16;;;;;;;23.13;14.27;;;22.40;99.90;;;;;;5037246;28;20064;-64
2021/06/19 11:35:46;;;;;;;19.42;13.13;;;22.30;99.90;;;;;;5036995;28;20056;-64
2021/06/19 11:38:18;;;;;;;19.30;12.20;;;22.20;99.90;;;;;;5034731;28;20033;-68
2021/06/19 11:40:48;;;;;;;25.67;16.20;;;22.00;99.90;;;;;;5036250;28;20598;-64
2021/06/19 11:43:14;;;;;;;;;;;21.60;99.90;;;;;;5036810;28;20029;-65
2021/06/19 11:45:41;;;;;;;25.50;15.60;;;21.30;99.90;;;;;;5035666;28;19916;-64
2021/06/19 11:48:15;;;;;;;25.02;14.90;;;21.20;99.90;;;;;;5032857;28;20492;-64
2021/06/19 11:50:43;;;;;;;23.55;14.93;;;21.20;99.90;;;;;;5010966;28;20117;-64
2021/06/19 11:53:31;;;;;;;15.77;11.07;;;21.20;99.90;;;;;;5036337;28;20032;-64
2021/06/19 11:56:11;;;;;;;17.48;10.20;;;21.20;99.90;;;;;;5034309;28;20040;-65
2021/06/19 11:58:46;;;;;;;16.25;10.57;;;21.10;99.90;;;;;;5036718;28;20071;-63
2021/06/19 12:01:14;;;;;;;15.70;10.77;;;21.00;99.90;;;;;;5034957;28;20113;-63
2021/06/19 12:03:40;;;;;;;17.63;11.45;;;21.10;99.90;;;;;;5032222;28;20021;-63
2021/06/19 12:06:07;;;;;;;19.08;11.38;;;20.90;99.90;;;;;;5034898;28;20526;-63
2021/06/19 12:08:33;;;;;;;17.65;12.18;;;21.00;99.90;;;;;;5034276;28;20040;-63
2021/06/19 12:11:00;;;;;;;19.08;14.18;;;20.90;99.90;;;;;;5035980;28;20413;-62
2021/06/19 12:13:42;;;;;;;23.00;15.15;;;20.60;99.90;;;;;;5011228;28;20542;-63
2021/06/19 12:16:09;;;;;;;27.38;15.90;;;20.30;99.90;;;;;;5035484;28;20021;-62
2021/06/19 12:18:36;;;;;;;25.23;15.23;;;20.30;99.90;;;;;;5034001;28;20029;-63
2021/06/19 12:21:10;;;;;;;26.50;16.05;;;20.30;99.90;;;;;;5033264;28;20447;-63
2021/06/19 12:23:35;;;;;;;28.20;16.83;;;20.10;99.90;;;;;;5034956;28;20429;-63
2021/06/19 12:26:07;;;;;;;32.45;18.15;;;20.00;99.90;;;;;;5033987;28;20060;-63
2021/06/19 12:28:35;;;;;;;29.20;16.50;;;20.00;99.90;;;;;;5035077;28;20447;-62
2021/06/19 12:31:03;;;;;;;25.33;14.30;;;19.70;99.90;;;;;;5034820;28;20067;-63
2021/06/19 12:33:31;;;;;;;28.30;16.15;;;19.70;99.90;;;;;;5036351;28;20058;-62
2021/06/19 12:35:58;;;;;;;29.85;15.57;;;19.60;99.90;;;;;;5035891;28;20036;-62
2021/06/19 12:38:25;;;;;;;28.52;15.18;;;19.60;99.90;;;;;;5036038;28;20025;-63
2021/06/19 12:40:52;;;;;;;25.02;14.68;;;19.50;99.90;;;;;;5035122;28;20033;-63
2021/06/19 12:43:18;;;;;;;20.63;12.75;;;19.50;99.90;;;;;;5034973;28;20496;-62
2021/06/19 12:45:49;;;;;;;21.85;12.90;;;19.40;99.90;;;;;;5033242;28;20079;-63
2021/06/19 12:48:27;;;;;;;20.83;13.05;;;19.30;99.90;;;;;;5036138;28;20032;-63